Time;durP1;ratioP1;P1;durP2;ratioP2;P2;SDS_P1;SDS_P2;PMS_P1;PMS_P2;Temp;Humidity;BMP_temperature;BMP_pressure;BME280_temperature;BME280_humidity;BME280_pressure;Samples;Min_cycle;Max_cycle;Signal;HPM_P1;HPM_P2
2022/01/27 00:00:38;;;;;;;82.90;15.18;;;;;;;;;;5073419;28;20213;-72
2022/01/27 00:03:17;;;;;;;83.88;14.55;;;;;;;;;;5073733;28;20221;-72
2022/01/27 00:05:50;;;;;;;76.90;12.82;;;;;;;;;;5073616;28;20209;-72
2022/01/27 00:08:22;;;;;;;79.70;13.70;;;;;;;;;;5072917;28;20212;-72
2022/01/27 00:10:52;;;;;;;81.90;15.13;;;;;;;;;;5073294;28;20213;-72
2022/01/27 00:13:25;;;;;;;81.22;13.07;;;;;;;;;;5073176;28;20316;-72
2022/01/27 00:16:00;;;;;;;79.97;11.85;;;;;;;;;;5073471;28;20251;-73
2022/01/27 00:18:29;;;;;;;80.88;13.88;;;;;;;;;;5072956;28;20229;-72
2022/01/27 00:20:58;;;;;;;80.85;13.38;;;;;;;;;;5073224;28;20205;-72
2022/01/27 00:23:25;;;;;;;80.38;13.65;;;;;;;;;;5072908;28;20260;-72
2022/01/27 00:25:52;;;;;;;79.25;13.43;;;;;;;;;;5073161;28;20202;-72
2022/01/27 00:28:19;;;;;;;89.65;14.40;;;;;;;;;;5072856;28;20293;-73
2022/01/27 00:30:46;;;;;;;77.78;14.07;;;;;;;;;;5072989;28;20255;-72
2022/01/27 00:33:14;;;;;;;76.50;13.27;;;;;;;;;;5072739;28;20321;-73
2022/01/27 00:35:41;;;;;;;79.13;11.23;;;;;;;;;;5073038;28;20213;-71
2022/01/27 00:38:09;;;;;;;78.65;13.00;;;;;;;;;;5072471;28;20216;-72
2022/01/27 00:40:36;;;;;;;80.70;14.13;;;;;;;;;;5072646;28;20276;-71
2022/01/27 00:43:04;;;;;;;79.57;14.23;;;;;;;;;;5072470;28;20236;-72
2022/01/27 00:45:32;;;;;;;84.72;14.20;;;;;;;;;;5072685;28;20674;-72
2022/01/27 00:48:03;;;;;;;78.75;14.38;;;;;;;;;;5072284;28;20296;-72
2022/01/27 00:50:31;;;;;;;86.43;14.10;;;;;;;;;;5072528;28;20278;-72
2022/01/27 00:53:01;;;;;;;78.57;14.38;;;;;;;;;;5072370;28;20240;-72
2022/01/27 00:55:33;;;;;;;80.97;14.05;;;;;;;;;;5072508;28;20201;-72
2022/01/27 00:58:11;;;;;;;81.80;12.90;;;;;;;;;;5072209;28;20213;-72
2022/01/27 01:00:43;;;;;;;78.45;13.85;;;;;;;;;;5072743;28;20248;-72
2022/01/27 01:03:15;;;;;;;83.30;14.63;;;;;;;;;;5072495;28;20236;-73
2022/01/27 01:06:00;;;;;;;82.63;13.00;;;;;;;;;;5072346;28;20208;-73
2022/01/27 01:09:19;;;;;;;80.95;13.07;;;;;;;;;;5072064;28;20251;-72
2022/01/27 01:12:02;;;;;;;78.00;13.25;;;;;;;;;;5072015;28;20251;-72
2022/01/27 01:14:44;;;;;;;83.95;12.70;;;;;;;;;;5072154;28;20300;-72
2022/01/27 01:17:28;;;;;;;83.82;14.25;;;;;;;;;;5071962;28;20209;-72
2022/01/27 01:20:16;;;;;;;75.75;12.82;;;;;;;;;;5071520;28;20290;-72
2022/01/27 01:31:11;;;;;;;83.03;13.77;;;;;;;;;;5072117;28;20279;-72
2022/01/27 01:33:40;;;;;;;77.63;13.38;;;;;;;;;;5071943;28;20225;-72
2022/01/27 01:36:15;;;;;;;84.97;16.02;;;;;;;;;;5071959;28;20210;-72
2022/01/27 01:38:44;;;;;;;86.38;16.50;;;;;;;;;;5071742;28;20233;-72
2022/01/27 01:41:11;;;;;;;81.30;15.23;;;;;;;;;;5072237;28;20217;-72
2022/01/27 01:43:40;;;;;;;79.20;13.93;;;;;;;;;;5072620;28;20596;-72
2022/01/27 01:46:07;;;;;;;85.82;15.82;;;;;;;;;;5071763;28;20209;-72
2022/01/27 01:48:34;;;;;;;80.05;15.85;;;;;;;;;;5071496;28;20208;-72
2022/01/27 01:51:02;;;;;;;82.13;14.27;;;;;;;;;;5071759;28;20201;-72
2022/01/27 01:53:30;;;;;;;83.20;14.00;;;;;;;;;;5071923;28;20597;-72
2022/01/27 01:55:58;;;;;;;81.65;14.00;;;;;;;;;;5071694;28;20670;-73
2022/01/27 01:58:25;;;;;;;80.70;14.25;;;;;;;;;;5071813;28;20646;-73
2022/01/27 02:00:54;;;;;;;82.25;14.38;;;;;;;;;;5071797;28;20693;-73
2022/01/27 02:03:21;;;;;;;78.00;13.43;;;;;;;;;;5071824;28;20308;-73
2022/01/27 02:05:52;;;;;;;84.57;14.95;;;;;;;;;;5071823;28;20613;-73
2022/01/27 02:08:47;;;;;;;74.13;12.02;;;;;;;;;;5071355;28;20209;-73
2022/01/27 02:19:31;;;;;;;80.50;13.63;;;;;;;;;;5071282;28;20298;-71
2022/01/27 02:22:01;;;;;;;83.75;13.45;;;;;;;;;;5071299;28;20292;-70
2022/01/27 02:24:29;;;;;;;78.45;13.07;;;;;;;;;;5071602;28;20292;-71
2022/01/27 02:26:56;;;;;;;82.97;13.63;;;;;;;;;;5071501;28;20581;-71
2022/01/27 02:29:24;;;;;;;87.00;16.23;;;;;;;;;;5071519;28;20210;-71
2022/01/27 02:31:51;;;;;;;78.63;14.10;;;;;;;;;;5075006;28;20297;-71
2022/01/27 02:34:19;;;;;;;87.78;15.38;;;;;;;;;;5075142;28;20212;-71
2022/01/27 02:36:46;;;;;;;87.68;14.38;;;;;;;;;;5075184;28;20308;-71
2022/01/27 02:39:15;;;;;;;89.15;15.52;;;;;;;;;;5074749;28;20332;-71
2022/01/27 02:41:53;;;;;;;78.63;14.55;;;;;;;;;;5075348;28;20237;-71
2022/01/27 02:44:26;;;;;;;84.68;14.60;;;;;;;;;;5073810;28;20296;-73
2022/01/27 02:46:53;;;;;;;79.63;13.63;;;;;;;;;;5074989;28;20518;-71
2022/01/27 02:49:21;;;;;;;79.68;13.75;;;;;;;;;;5074721;28;20207;-71
2022/01/27 02:51:48;;;;;;;81.65;12.48;;;;;;;;;;5074826;28;20205;-71
2022/01/27 02:54:16;;;;;;;74.68;11.98;;;;;;;;;;5074631;28;20321;-73
2022/01/27 02:56:46;;;;;;;79.60;13.85;;;;;;;;;;5074817;28;20224;-72
2022/01/27 02:59:14;;;;;;;82.78;14.48;;;;;;;;;;5074834;28;20283;-72
2022/01/27 03:01:41;;;;;;;85.13;14.77;;;;;;;;;;5074948;28;20210;-72
2022/01/27 03:04:08;;;;;;;81.00;14.73;;;;;;;;;;5074607;28;20225;-72
2022/01/27 03:06:35;;;;;;;80.38;13.93;;;;;;;;;;5074906;28;20259;-72
2022/01/27 03:09:03;;;;;;;75.07;13.13;;;;;;;;;;5074333;28;20233;-72
2022/01/27 03:11:39;;;;;;;82.75;15.13;;;;;;;;;;5074915;28;20259;-72
2022/01/27 03:14:07;;;;;;;82.10;14.73;;;;;;;;;;5074530;28;20747;-73
2022/01/27 03:16:35;;;;;;;85.88;13.63;;;;;;;;;;5074640;28;20216;-73
2022/01/27 03:19:02;;;;;;;80.97;13.30;;;;;;;;;;5074210;28;20253;-72
2022/01/27 03:21:29;;;;;;;77.63;12.75;;;;;;;;;;5074243;28;20206;-72
2022/01/27 03:23:57;;;;;;;84.90;14.30;;;;;;;;;;5074510;28;20316;-72
2022/01/27 03:26:25;;;;;;;81.93;14.07;;;;;;;;;;5074366;28;20742;-72
2022/01/27 03:28:53;;;;;;;77.68;13.50;;;;;;;;;;5074107;28;20213;-72
2022/01/27 03:31:21;;;;;;;81.85;13.60;;;;;;;;;;5074143;28;20209;-72
2022/01/27 03:33:48;;;;;;;82.63;12.98;;;;;;;;;;5073915;28;20226;-72
2022/01/27 03:36:15;;;;;;;82.15;13.77;;;;;;;;;;5073785;28;20685;-73
2022/01/27 03:38:42;;;;;;;76.40;13.05;;;;;;;;;;5074062;28;20311;-72
2022/01/27 03:41:10;;;;;;;81.13;14.02;;;;;;;;;;5074269;28;20226;-72
2022/01/27 03:43:38;;;;;;;80.78;13.73;;;;;;;;;;5073410;28;20232;-73
2022/01/27 03:46:07;;;;;;;78.95;11.93;;;;;;;;;;5073992;28;20296;-72
2022/01/27 03:48:35;;;;;;;77.32;12.20;;;;;;;;;;5073641;28;20300;-72
2022/01/27 03:51:02;;;;;;;79.03;13.50;;;;;;;;;;5074032;28;20201;-72
2022/01/27 03:53:29;;;;;;;82.65;14.05;;;;;;;;;;5073874;28;20225;-72
2022/01/27 03:55:56;;;;;;;77.65;12.93;;;;;;;;;;5074097;28;20688;-72
2022/01/27 03:58:23;;;;;;;78.38;13.55;;;;;;;;;;5073518;28;20202;-72
2022/01/27 04:00:50;;;;;;;79.13;14.07;;;;;;;;;;5073692;28;20226;-72
2022/01/27 04:03:21;;;;;;;82.97;14.00;;;;;;;;;;5073342;28;20770;-73
2022/01/27 04:05:52;;;;;;;79.90;15.32;;;;;;;;;;5073709;28;20205;-72
2022/01/27 04:08:20;;;;;;;78.90;13.07;;;;;;;;;;5073706;28;20212;-72
2022/01/27 04:10:47;;;;;;;79.55;14.38;;;;;;;;;;5073451;28;20213;-72
2022/01/27 04:13:15;;;;;;;82.03;13.93;;;;;;;;;;5073296;28;20312;-72
2022/01/27 04:15:43;;;;;;;78.60;12.70;;;;;;;;;;5073320;28;20620;-72
2022/01/27 04:18:10;;;;;;;79.30;14.85;;;;;;;;;;5072992;28;20674;-72
2022/01/27 04:20:39;;;;;;;89.10;15.40;;;;;;;;;;5073062;28;20755;-72
2022/01/27 04:23:06;;;;;;;78.97;14.30;;;;;;;;;;5073051;28;20780;-72
2022/01/27 04:25:34;;;;;;;81.13;13.43;;;;;;;;;;5073234;28;20228;-72
2022/01/27 04:28:05;;;;;;;84.43;13.30;;;;;;;;;;5072799;28;20201;-72
2022/01/27 04:30:32;;;;;;;80.47;14.40;;;;;;;;;;5072946;28;20201;-72
2022/01/27 04:33:02;;;;;;;78.40;13.40;;;;;;;;;;5072995;28;20275;-72
2022/01/27 04:35:32;;;;;;;78.65;14.10;;;;;;;;;;5073140;28;20223;-73
2022/01/27 04:38:14;;;;;;;77.10;12.77;;;;;;;;;;5072737;28;20209;-72
2022/01/27 04:40:48;;;;;;;83.85;15.20;;;;;;;;;;5072539;28;20222;-72
2022/01/27 04:43:22;;;;;;;83.80;14.30;;;;;;;;;;5072596;28;20264;-73
2022/01/27 04:45:58;;;;;;;76.28;13.27;;;;;;;;;;5072983;28;20205;-72
2022/01/27 04:48:26;;;;;;;81.13;14.60;;;;;;;;;;5072523;28;20578;-72
2022/01/27 04:50:55;;;;;;;81.00;15.13;;;;;;;;;;5072642;28;20252;-72
2022/01/27 04:53:29;;;;;;;86.50;15.82;;;;;;;;;;5071761;28;20260;-73
2022/01/27 04:55:58;;;;;;;84.65;16.33;;;;;;;;;;5072650;28;20237;-72
2022/01/27 04:58:31;;;;;;;84.78;13.93;;;;;;;;;;5072285;28;20206;-72
2022/01/27 05:01:00;;;;;;;84.65;15.85;;;;;;;;;;5072416;28;20229;-72
2022/01/27 05:03:36;;;;;;;81.97;13.90;;;;;;;;;;5072343;28;20775;-72
2022/01/27 05:06:03;;;;;;;77.47;13.32;;;;;;;;;;5072644;28;20316;-72
2022/01/27 05:08:33;;;;;;;87.07;15.45;;;;;;;;;;5072046;28;20292;-72
2022/01/27 05:11:03;;;;;;;78.22;13.80;;;;;;;;;;5072467;28;20217;-72
2022/01/27 05:13:38;;;;;;;82.10;13.70;;;;;;;;;;5072154;28;20233;-72
2022/01/27 05:16:05;;;;;;;87.90;16.70;;;;;;;;;;5072236;28;20205;-72
2022/01/27 05:18:32;;;;;;;77.40;14.50;;;;;;;;;;5071882;28;20245;-73
2022/01/27 05:21:00;;;;;;;87.32;16.08;;;;;;;;;;5072323;28;20317;-73
2022/01/27 05:23:27;;;;;;;79.85;12.35;;;;;;;;;;5072006;28;20253;-73
2022/01/27 05:25:55;;;;;;;82.13;15.75;;;;;;;;;;5072178;28;20212;-72
2022/01/27 05:28:23;;;;;;;83.40;13.50;;;;;;;;;;5072211;28;20689;-72
2022/01/27 05:30:50;;;;;;;94.13;14.23;;;;;;;;;;5072059;28;20255;-72
2022/01/27 05:33:17;;;;;;;87.30;13.68;;;;;;;;;;5072135;28;20647;-71
2022/01/27 05:35:45;;;;;;;84.57;13.25;;;;;;;;;;5071706;28;20308;-72
2022/01/27 05:38:13;;;;;;;80.90;13.75;;;;;;;;;;5072285;28;20206;-72
2022/01/27 05:40:41;;;;;;;79.55;12.60;;;;;;;;;;5072371;28;20585;-71
2022/01/27 05:43:09;;;;;;;85.65;16.77;;;;;;;;;;5071631;28;20236;-72
2022/01/27 05:45:36;;;;;;;81.07;15.40;;;;;;;;;;5071899;28;20593;-72
2022/01/27 05:48:04;;;;;;;92.05;15.40;;;;;;;;;;5071544;28;20198;-72
2022/01/27 05:50:31;;;;;;;79.53;13.85;;;;;;;;;;5071987;28;20201;-72
2022/01/27 05:52:58;;;;;;;81.63;13.55;;;;;;;;;;5071817;28;20229;-72
2022/01/27 05:55:25;;;;;;;86.05;14.70;;;;;;;;;;5071822;28;20201;-73
2022/01/27 05:57:53;;;;;;;88.28;14.45;;;;;;;;;;5071315;28;20212;-72
2022/01/27 06:00:21;;;;;;;81.63;14.63;;;;;;;;;;5071782;28;20229;-72
2022/01/27 06:02:48;;;;;;;79.80;14.93;;;;;;;;;;5071435;28;20710;-73
2022/01/27 06:05:15;;;;;;;85.55;14.40;;;;;;;;;;5072625;28;20304;-73
2022/01/27 06:07:43;;;;;;;80.60;13.50;;;;;;;;;;5075611;28;20205;-72
2022/01/27 06:10:10;;;;;;;83.65;14.82;;;;;;;;;;5075834;28;20206;-72
2022/01/27 06:12:45;;;;;;;82.03;12.20;;;;;;;;;;5074244;28;20232;-73
2022/01/27 06:15:12;;;;;;;84.78;14.68;;;;;;;;;;5075829;28;20295;-73
2022/01/27 06:17:41;;;;;;;81.05;14.32;;;;;;;;;;5075516;28;20206;-73
2022/01/27 06:20:09;;;;;;;78.20;14.18;;;;;;;;;;5075532;28;20719;-72
2022/01/27 06:22:36;;;;;;;80.65;13.55;;;;;;;;;;5075412;28;20236;-73
2022/01/27 06:25:04;;;;;;;92.45;15.73;;;;;;;;;;5075514;28;20205;-73
2022/01/27 06:27:31;;;;;;;83.75;14.40;;;;;;;;;;5075500;28;20236;-73
2022/01/27 06:29:58;;;;;;;83.22;15.85;;;;;;;;;;5075644;28;20210;-73
2022/01/27 06:32:25;;;;;;;79.72;15.15;;;;;;;;;;5077449;28;20221;-72
2022/01/27 06:34:54;;;;;;;81.88;16.70;;;;;;;;;;5079614;28;20296;-72
2022/01/27 06:37:21;;;;;;;82.00;15.93;;;;;;;;;;5079058;28;20209;-72
2022/01/27 06:39:48;;;;;;;90.32;16.42;;;;;;;;;;5080416;28;20300;-73
2022/01/27 06:42:15;;;;;;;82.38;14.95;;;;;;;;;;5079640;28;20260;-72
2022/01/27 06:44:42;;;;;;;82.50;14.63;;;;;;;;;;5080686;28;20292;-72
2022/01/27 06:47:09;;;;;;;81.95;14.30;;;;;;;;;;5080695;28;20198;-73
2022/01/27 06:49:36;;;;;;;82.53;13.25;;;;;;;;;;5075617;28;20205;-73
2022/01/27 06:52:04;;;;;;;83.63;16.05;;;;;;;;;;5074732;28;20205;-72
2022/01/27 06:54:32;;;;;;;88.53;17.23;;;;;;;;;;5073477;28;20678;-72
2022/01/27 06:57:00;;;;;;;96.05;19.02;;;;;;;;;;5074795;28;20212;-73
2022/01/27 06:59:27;;;;;;;90.43;16.13;;;;;;;;;;5074784;28;20297;-72
2022/01/27 07:01:55;;;;;;;86.55;17.40;;;;;;;;;;5074594;28;20323;-73
2022/01/27 07:04:22;;;;;;;89.15;17.52;;;;;;;;;;5074663;28;20205;-72
2022/01/27 07:06:51;;;;;;;96.68;19.90;;;;;;;;;;5074851;28;20296;-73
2022/01/27 07:09:19;;;;;;;94.82;17.75;;;;;;;;;;5074538;28;20205;-74
2022/01/27 07:11:47;;;;;;;97.55;20.42;;;;;;;;;;5074604;28;20202;-73
2022/01/27 07:14:14;;;;;;;95.57;18.90;;;;;;;;;;5074360;28;20770;-72
2022/01/27 07:16:42;;;;;;;105.13;20.23;;;;;;;;;;5073302;28;20202;-72
2022/01/27 07:19:10;;;;;;;89.38;18.45;;;;;;;;;;5074131;28;20232;-73
2022/01/27 07:21:37;;;;;;;95.88;19.40;;;;;;;;;;5074361;28;20786;-73
2022/01/27 07:24:04;;;;;;;83.57;16.52;;;;;;;;;;5074446;28;20228;-73
2022/01/27 07:26:31;;;;;;;93.20;17.02;;;;;;;;;;5074305;28;20202;-74
2022/01/27 07:29:00;;;;;;;91.25;17.55;;;;;;;;;;5074157;28;20297;-73
2022/01/27 07:31:27;;;;;;;83.55;17.42;;;;;;;;;;5074109;28;20288;-70
2022/01/27 07:33:54;;;;;;;90.45;16.88;;;;;;;;;;5074244;28;20647;-74
2022/01/27 07:36:22;;;;;;;92.60;17.50;;;;;;;;;;5074596;28;20221;-74
2022/01/27 07:38:50;;;;;;;88.45;17.20;;;;;;;;;;5074523;28;20459;-73
2022/01/27 07:41:18;;;;;;;87.70;15.55;;;;;;;;;;5074213;28;20316;-73
2022/01/27 07:43:45;;;;;;;88.38;17.80;;;;;;;;;;5073846;28;20321;-73
2022/01/27 07:46:14;;;;;;;90.88;17.73;;;;;;;;;;5073757;28;20296;-74
2022/01/27 07:48:41;;;;;;;90.90;17.20;;;;;;;;;;5073963;28;20636;-72
2022/01/27 07:51:09;;;;;;;92.53;18.42;;;;;;;;;;5074096;28;20288;-72
2022/01/27 07:53:36;;;;;;;88.63;19.15;;;;;;;;;;5073864;28;20321;-72
2022/01/27 07:56:04;;;;;;;83.85;15.15;;;;;;;;;;5073956;28;20205;-72
2022/01/27 07:58:31;;;;;;;92.57;19.38;;;;;;;;;;5073802;28;20206;-72
2022/01/27 08:00:58;;;;;;;86.57;17.67;;;;;;;;;;5073796;28;20635;-72
2022/01/27 08:03:27;;;;;;;81.15;14.43;;;;;;;;;;5073797;28;20304;-71
2022/01/27 08:05:54;;;;;;;90.25;17.30;;;;;;;;;;5074226;28;20687;-72
2022/01/27 08:08:21;;;;;;;85.13;16.52;;;;;;;;;;5073753;28;20209;-72
2022/01/27 08:10:48;;;;;;;86.68;15.25;;;;;;;;;;5073790;28;20197;-73
2022/01/27 08:13:15;;;;;;;93.20;17.80;;;;;;;;;;5073629;28;20316;-73
2022/01/27 08:15:43;;;;;;;89.25;15.60;;;;;;;;;;5074172;28;20202;-73
2022/01/27 08:18:10;;;;;;;95.15;16.73;;;;;;;;;;5073637;28;20206;-72
2022/01/27 08:20:40;;;;;;;89.47;16.27;;;;;;;;;;5073699;28;20316;-73
2022/01/27 08:23:07;;;;;;;91.60;15.20;;;;;;;;;;5073595;28;20232;-73
2022/01/27 08:25:35;;;;;;;94.00;18.38;;;;;;;;;;5073628;28;20296;-72
2022/01/27 08:28:06;;;;;;;93.68;16.77;;;;;;;;;;5072980;28;20308;-72
2022/01/27 08:30:41;;;;;;;88.60;15.88;;;;;;;;;;5073918;28;20205;-73
2022/01/27 08:33:14;;;;;;;86.07;18.00;;;;;;;;;;5073287;28;20636;-72
2022/01/27 08:35:43;;;;;;;98.78;18.83;;;;;;;;;;5073192;28;20213;-72
2022/01/27 08:38:10;;;;;;;97.45;16.77;;;;;;;;;;5072826;28;20297;-72
2022/01/27 08:40:37;;;;;;;97.80;17.98;;;;;;;;;;5072936;28;20305;-73
2022/01/27 08:43:05;;;;;;;86.07;15.50;;;;;;;;;;5073288;28;20230;-73
2022/01/27 08:45:32;;;;;;;94.78;17.38;;;;;;;;;;5072647;28;20209;-71
2022/01/27 08:48:00;;;;;;;87.43;16.10;;;;;;;;;;5072581;28;20300;-72
2022/01/27 08:50:28;;;;;;;86.35;16.70;;;;;;;;;;5072835;28;20202;-73
2022/01/27 08:52:56;;;;;;;86.93;16.35;;;;;;;;;;5072572;28;20721;-72
2022/01/27 08:55:24;;;;;;;86.72;15.40;;;;;;;;;;5073096;28;20210;-73
2022/01/27 08:57:51;;;;;;;86.00;15.70;;;;;;;;;;5072623;28;20205;-72
2022/01/27 09:00:20;;;;;;;86.50;15.38;;;;;;;;;;5073406;28;20664;-72
2022/01/27 09:02:47;;;;;;;85.95;14.02;;;;;;;;;;5072589;28;20601;-72
2022/01/27 09:05:15;;;;;;;95.78;18.92;;;;;;;;;;5072445;28;20193;-73
2022/01/27 09:07:42;;;;;;;87.38;15.25;;;;;;;;;;5072225;28;20300;-73
2022/01/27 09:10:11;;;;;;;93.50;16.98;;;;;;;;;;5072271;28;20213;-73
2022/01/27 09:12:38;;;;;;;82.57;16.23;;;;;;;;;;5072296;28;20225;-73
2022/01/27 09:15:06;;;;;;;86.95;14.50;;;;;;;;;;5072247;28;20206;-73
2022/01/27 09:17:39;;;;;;;83.10;13.38;;;;;;;;;;5072022;28;20296;-73
2022/01/27 09:20:07;;;;;;;90.95;15.73;;;;;;;;;;5072213;28;20300;-73
2022/01/27 09:22:36;;;;;;;82.75;13.30;;;;;;;;;;5072240;28;20323;-73
2022/01/27 09:25:09;;;;;;;84.93;14.05;;;;;;;;;;5072289;28;20617;-73
2022/01/27 09:27:38;;;;;;;83.10;14.70;;;;;;;;;;5071787;28;20205;-74
2022/01/27 09:30:06;;;;;;;82.35;14.73;;;;;;;;;;5071982;28;20297;-73
2022/01/27 09:32:33;;;;;;;92.05;15.90;;;;;;;;;;5071967;28;20225;-73
2022/01/27 09:35:00;;;;;;;80.00;11.77;;;;;;;;;;5072440;28;20291;-72
2022/01/27 09:37:27;;;;;;;81.47;12.25;;;;;;;;;;5072012;28;20206;-73
2022/01/27 09:39:54;;;;;;;74.13;10.90;;;;;;;;;;5071431;28;20296;-72
2022/01/27 09:42:24;;;;;;;80.45;11.90;;;;;;;;;;5071736;28;20235;-72
2022/01/27 09:44:54;;;;;;;86.25;13.25;;;;;;;;;;5072106;28;20259;-72
2022/01/27 09:47:25;;;;;;;77.80;12.93;;;;;;;;;;5071800;28;20209;-72
2022/01/27 09:50:03;;;;;;;88.50;14.55;;;;;;;;;;5071960;28;20209;-72
2022/01/27 09:52:30;;;;;;;85.22;13.70;;;;;;;;;;5071620;28;20233;-72
2022/01/27 09:54:58;;;;;;;86.15;14.73;;;;;;;;;;5071780;28;20248;-72
2022/01/27 09:57:25;;;;;;;83.00;14.23;;;;;;;;;;5071788;28;20855;-72
2022/01/27 09:59:54;;;;;;;80.82;14.00;;;;;;;;;;5071827;28;20298;-72
2022/01/27 10:02:22;;;;;;;83.80;13.13;;;;;;;;;;5071343;28;20702;-72
2022/01/27 10:04:50;;;;;;;78.93;14.50;;;;;;;;;;5071773;28;20209;-72
2022/01/27 10:07:19;;;;;;;79.25;13.13;;;;;;;;;;5071266;28;20209;-73
2022/01/27 10:09:56;;;;;;;78.60;12.23;;;;;;;;;;5071391;28;20752;-72
2022/01/27 10:12:26;;;;;;;77.85;12.18;;;;;;;;;;5071578;28;20224;-72
2022/01/27 10:14:59;;;;;;;80.43;11.85;;;;;;;;;;5071677;28;20720;-73
2022/01/27 10:17:28;;;;;;;78.72;11.27;;;;;;;;;;5071849;28;20209;-73
2022/01/27 10:19:55;;;;;;;79.18;12.43;;;;;;;;;;5071595;28;20605;-73
2022/01/27 10:22:23;;;;;;;81.65;12.32;;;;;;;;;;5071154;28;20320;-71
2022/01/27 10:25:00;;;;;;;82.47;13.95;;;;;;;;;;5052868;28;20289;-76
2022/01/27 10:27:32;;;;;;;78.63;12.80;;;;;;;;;;5051489;28;20272;-72
2022/01/27 10:32:44;;;;;;;80.03;11.82;;;;;;;;;;5042066;28;20768;-73
2022/01/27 10:35:12;;;;;;;75.78;11.00;;;;;;;;;;5051068;28;20225;-76
2022/01/27 10:37:56;;;;;;;74.07;10.40;;;;;;;;;;5051977;28;20579;-72
2022/01/27 10:40:24;;;;;;;71.05;9.55;;;;;;;;;;5051227;28;20217;-71
2022/01/27 10:43:05;;;;;;;72.07;9.90;;;;;;;;;;5051017;28;20603;-71
2022/01/27 10:45:33;;;;;;;73.03;9.73;;;;;;;;;;5051150;28;20222;-73
2022/01/27 10:48:08;;;;;;;66.88;8.30;;;;;;;;;;5051208;28;20228;-73
2022/01/27 10:50:48;;;;;;;76.30;10.80;;;;;;;;;;5051171;28;20202;-73
2022/01/27 10:53:15;;;;;;;70.28;9.55;;;;;;;;;;5054794;28;20283;-75
2022/01/27 10:55:42;;;;;;;73.90;9.60;;;;;;;;;;5054774;28;20206;-72
2022/01/27 10:58:25;;;;;;;70.43;9.40;;;;;;;;;;5054758;28;20293;-75
2022/01/27 11:00:59;;;;;;;68.28;9.27;;;;;;;;;;5054981;28;20626;-76
2022/01/27 11:03:26;;;;;;;72.25;9.82;;;;;;;;;;5055173;28;20234;-76
2022/01/27 11:05:54;;;;;;;73.68;9.90;;;;;;;;;;5054669;28;20300;-76
2022/01/27 11:08:23;;;;;;;73.43;9.60;;;;;;;;;;5054280;28;20248;-77
2022/01/27 11:10:51;;;;;;;74.30;9.75;;;;;;;;;;5055148;28;20245;-73
2022/01/27 11:13:22;;;;;;;76.45;12.63;;;;;;;;;;5054601;28;20309;-74
2022/01/27 11:15:49;;;;;;;72.72;10.63;;;;;;;;;;5054311;28;20234;-74
2022/01/27 11:18:19;;;;;;;68.63;9.77;;;;;;;;;;5054278;28;20210;-74
2022/01/27 11:20:54;;;;;;;75.65;10.90;;;;;;;;;;5058588;28;20208;-74
2022/01/27 11:23:46;;;;;;;74.25;9.38;;;;;;;;;;5073739;28;20240;-73
2022/01/27 11:26:16;;;;;;;71.68;11.23;;;;;;;;;;5073990;28;20206;-73
2022/01/27 11:28:44;;;;;;;70.97;10.55;;;;;;;;;;5074061;28;20205;-73
2022/01/27 11:31:18;;;;;;;70.85;10.57;;;;;;;;;;5073926;28;20209;-73
2022/01/27 11:33:59;;;;;;;73.93;11.90;;;;;;;;;;5074632;28;20260;-73
2022/01/27 11:36:27;;;;;;;78.97;12.75;;;;;;;;;;5074085;28;20631;-73
2022/01/27 11:38:54;;;;;;;81.00;12.98;;;;;;;;;;5073856;28;20618;-73
2022/01/27 11:41:42;;;;;;;75.03;11.48;;;;;;;;;;5073838;28;20209;-74
2022/01/27 11:44:22;;;;;;;70.40;9.98;;;;;;;;;;5074088;28;20229;-73
2022/01/27 11:47:08;;;;;;;76.50;11.70;;;;;;;;;;5073915;28;20228;-73
2022/01/27 11:49:55;;;;;;;75.05;10.95;;;;;;;;;;5073855;28;20229;-73
2022/01/27 11:52:23;;;;;;;73.20;11.55;;;;;;;;;;5069515;28;20241;-73
2022/01/27 11:54:50;;;;;;;71.15;10.18;;;;;;;;;;5053676;28;20217;-73
2022/01/27 11:57:32;;;;;;;74.15;11.88;;;;;;;;;;5053464;28;20246;-71
2022/01/27 12:00:08;;;;;;;75.90;12.10;;;;;;;;;;5051470;28;20212;-76
2022/01/27 12:02:50;;;;;;;76.07;11.88;;;;;;;;;;5052779;28;20229;-75
2022/01/27 12:05:19;;;;;;;80.10;12.30;;;;;;;;;;5053427;28;20205;-75
2022/01/27 12:08:00;;;;;;;72.93;11.35;;;;;;;;;;5053219;28;20734;-75
2022/01/27 12:10:41;;;;;;;69.13;10.65;;;;;;;;;;5053042;28;20294;-73
2022/01/27 12:13:23;;;;;;;78.00;11.65;;;;;;;;;;5053519;28;20313;-74
2022/01/27 12:16:09;;;;;;;77.88;12.48;;;;;;;;;;5053156;28;20238;-74
2022/01/27 12:18:36;;;;;;;75.70;11.35;;;;;;;;;;5053137;28;20256;-74
2022/01/27 12:21:29;;;;;;;84.10;10.70;;;;;;;;;;5052410;28;20206;-74
2022/01/27 12:24:16;;;;;;;76.28;10.05;;;;;;;;;;5052916;28;20301;-74
2022/01/27 12:26:46;;;;;;;72.03;10.40;;;;;;;;;;5052793;28;20686;-74
2022/01/27 12:29:13;;;;;;;73.18;12.00;;;;;;;;;;5051787;28;20202;-74
2022/01/27 12:31:40;;;;;;;72.05;10.38;;;;;;;;;;5052046;28;20208;-74
2022/01/27 12:34:08;;;;;;;76.05;11.82;;;;;;;;;;5051958;28;20234;-74
2022/01/27 12:36:36;;;;;;;73.20;10.95;;;;;;;;;;5052255;28;20226;-74
2022/01/27 12:39:05;;;;;;;76.15;10.80;;;;;;;;;;5052755;28;20800;-73
2022/01/27 12:41:37;;;;;;;72.72;9.63;;;;;;;;;;5051844;28;20214;-73
2022/01/27 12:44:10;;;;;;;72.55;10.70;;;;;;;;;;5052565;28;20256;-74
2022/01/27 12:46:37;;;;;;;73.60;10.50;;;;;;;;;;5059884;28;20212;-74
2022/01/27 12:49:04;;;;;;;79.00;11.40;;;;;;;;;;5071905;28;20729;-75
2022/01/27 12:51:46;;;;;;;73.47;10.70;;;;;;;;;;5071157;28;20206;-74
2022/01/27 12:54:15;;;;;;;71.78;10.43;;;;;;;;;;5071829;28;20253;-73
2022/01/27 12:56:42;;;;;;;74.45;10.27;;;;;;;;;;5071886;28;20202;-73
2022/01/27 12:59:14;;;;;;;74.03;10.32;;;;;;;;;;5072010;28;20220;-74
2022/01/27 13:01:41;;;;;;;70.95;9.85;;;;;;;;;;5072301;28;20212;-75
2022/01/27 13:04:08;;;;;;;79.15;11.80;;;;;;;;;;5072132;28;20324;-75
2022/01/27 13:06:36;;;;;;;73.63;10.65;;;;;;;;;;5072323;28;20288;-75
2022/01/27 13:09:12;;;;;;;72.40;9.60;;;;;;;;;;5071820;28;20741;-74
2022/01/27 13:11:41;;;;;;;71.78;8.65;;;;;;;;;;5072129;28;20201;-74
2022/01/27 13:14:08;;;;;;;72.78;9.82;;;;;;;;;;5071705;28;20261;-75
2022/01/27 13:16:41;;;;;;;72.07;10.90;;;;;;;;;;5071641;28;20275;-75
2022/01/27 13:19:19;;;;;;;73.70;10.10;;;;;;;;;;5069615;28;20209;-75
2022/01/27 13:21:51;;;;;;;72.30;9.98;;;;;;;;;;5072241;28;20193;-77
2022/01/27 13:24:19;;;;;;;74.13;12.63;;;;;;;;;;5071960;28;20286;-76
2022/01/27 13:26:49;;;;;;;70.22;10.25;;;;;;;;;;5072240;28;20560;-77
2022/01/27 13:29:19;;;;;;;76.95;10.88;;;;;;;;;;5071852;28;20339;-77
2022/01/27 13:31:46;;;;;;;72.55;10.15;;;;;;;;;;5072546;28;20209;-76
2022/01/27 13:34:15;;;;;;;73.93;9.45;;;;;;;;;;5073164;28;20291;-76
2022/01/27 13:36:56;;;;;;;72.05;9.93;;;;;;;;;;5071516;28;20633;-75
2022/01/27 13:39:36;;;;;;;73.95;10.75;;;;;;;;;;5071585;28;20216;-76
2022/01/27 13:42:09;;;;;;;75.50;10.68;;;;;;;;;;5071867;28;20262;-76
2022/01/27 13:44:36;;;;;;;68.97;10.40;;;;;;;;;;5071939;28;20186;-76
2022/01/27 13:47:04;;;;;;;74.15;10.82;;;;;;;;;;5071821;28;20198;-75
2022/01/27 13:49:33;;;;;;;74.43;10.02;;;;;;;;;;5064126;28;20272;-74
2022/01/27 13:52:01;;;;;;;74.10;10.50;;;;;;;;;;5051562;28;20256;-74
2022/01/27 13:54:35;;;;;;;70.78;10.88;;;;;;;;;;5051471;28;20212;-74
2022/01/27 13:57:05;;;;;;;69.20;10.85;;;;;;;;;;5051237;28;20220;-74
2022/01/27 13:59:43;;;;;;;70.70;10.77;;;;;;;;;;5051642;28;20206;-74
2022/01/27 14:02:14;;;;;;;70.72;10.48;;;;;;;;;;5051784;28;20202;-74
2022/01/27 14:04:44;;;;;;;74.70;10.40;;;;;;;;;;5051980;28;20206;-74
2022/01/27 14:07:11;;;;;;;72.90;10.43;;;;;;;;;;5051257;28;20264;-74
2022/01/27 14:09:42;;;;;;;68.15;11.13;;;;;;;;;;5051328;28;20226;-74
2022/01/27 14:12:09;;;;;;;75.60;11.40;;;;;;;;;;5051661;28;20642;-74
2022/01/27 14:14:49;;;;;;;71.85;10.95;;;;;;;;;;5051415;28;20647;-74
2022/01/27 14:17:22;;;;;;;73.47;9.27;;;;;;;;;;5050953;28;20209;-74
2022/01/27 14:19:50;;;;;;;68.70;10.30;;;;;;;;;;5051323;28;20210;-72
2022/01/27 14:22:20;;;;;;;72.28;10.65;;;;;;;;;;5049691;28;20253;-73
2022/01/27 14:25:01;;;;;;;72.15;11.07;;;;;;;;;;5051579;28;20207;-72
2022/01/27 14:27:33;;;;;;;74.82;11.60;;;;;;;;;;5054319;28;20260;-72
2022/01/27 14:30:01;;;;;;;72.85;10.18;;;;;;;;;;5055320;28;20582;-72
2022/01/27 14:32:30;;;;;;;73.82;9.07;;;;;;;;;;5054936;28;20241;-72
2022/01/27 14:34:57;;;;;;;74.70;10.80;;;;;;;;;;5055410;28;20260;-73
2022/01/27 14:37:24;;;;;;;76.00;9.98;;;;;;;;;;5054875;28;20260;-74
2022/01/27 14:39:51;;;;;;;70.30;9.75;;;;;;;;;;5055442;28;20210;-73
2022/01/27 14:42:23;;;;;;;70.55;9.85;;;;;;;;;;5055122;28;20226;-73
2022/01/27 14:44:51;;;;;;;75.65;10.30;;;;;;;;;;5055438;28;20536;-74
2022/01/27 14:47:20;;;;;;;71.65;10.02;;;;;;;;;;5055041;28;20264;-74
2022/01/27 14:49:51;;;;;;;69.93;9.93;;;;;;;;;;5055437;28;20210;-74
2022/01/27 14:52:22;;;;;;;71.07;10.45;;;;;;;;;;5057932;28;20343;-73
2022/01/27 14:54:50;;;;;;;80.78;11.05;;;;;;;;;;5074809;28;20311;-74